Time;durP1;ratioP1;P1;durP2;ratioP2;P2;SDS_P1;SDS_P2;PMS_P1;PMS_P2;Temp;Humidity;BMP_temperature;BMP_pressure;BME280_temperature;BME280_humidity;BME280_pressure;Samples;Min_cycle;Max_cycle;Signal;HPM_P1;HPM_P2
2023/10/18 00:00:59;;;;;;;0.40;0.30;;;;;;;12.95;100.00;95479.09;5135399;27;20521;-57
2023/10/18 00:03:30;;;;;;;0.63;0.63;;;;;;;13.04;100.00;95472.06;5135998;27;20438;-57
2023/10/18 00:05:59;;;;;;;1.30;1.20;;;;;;;12.99;100.00;95469.47;5135096;27;20514;-57
2023/10/18 00:08:28;;;;;;;0.63;0.63;;;;;;;13.20;100.00;95466.38;5135411;27;20434;-57
2023/10/18 00:11:00;;;;;;;0.40;0.40;;;;;;;13.08;100.00;95475.81;5135556;27;20465;-57
2023/10/18 00:13:30;;;;;;;0.40;0.30;;;;;;;13.05;100.00;95469.16;5135804;27;20462;-57
2023/10/18 00:16:03;;;;;;;0.40;0.30;;;;;;;12.56;100.00;95416.09;5135159;27;20434;-57
2023/10/18 00:18:33;;;;;;;0.40;0.30;;;;;;;13.02;100.00;95479.53;5135413;27;20438;-57
2023/10/18 00:21:03;;;;;;;1.10;1.00;;;;;;;12.97;100.00;95467.09;5135263;27;20471;-57
2023/10/18 00:23:32;;;;;;;0.40;0.30;;;;;;;13.00;100.00;95463.06;5134751;27;20434;-58
2023/10/18 00:26:05;;;;;;;0.50;0.33;;;;;;;12.92;100.00;95469.78;5135052;27;20501;-57
2023/10/18 00:28:36;;;;;;;0.93;0.53;;;;;;;13.11;100.00;95467.25;5120852;27;21009;-57
2023/10/18 00:31:12;;;;;;;0.40;0.30;;;;;;;13.14;100.00;95466.69;5135242;27;20470;-57
2023/10/18 00:33:43;;;;;;;0.40;0.20;;;;;;;13.33;100.00;95476.31;5134929;27;20511;-58
2023/10/18 00:36:11;;;;;;;2.13;0.83;;;;;;;13.21;100.00;95472.47;5134853;27;20434;-57
2023/10/18 00:38:40;;;;;;;0.83;0.47;;;;;;;12.96;100.00;95475.34;5135036;27;20439;-57
2023/10/18 00:41:14;;;;;;;0.40;0.40;;;;;;;12.75;100.00;95470.19;5135328;27;20445;-57
2023/10/18 00:43:45;;;;;;;0.93;0.50;;;;;;;12.73;100.00;95471.53;5109070;27;20454;-57
2023/10/18 00:46:15;;;;;;;0.40;0.30;;;;;;;12.79;100.00;95469.63;5133927;27;20613;-56
2023/10/18 00:48:46;;;;;;;0.57;0.50;;;;;;;12.82;100.00;95474.41;5134437;27;20470;-56
2023/10/18 00:51:16;;;;;;;0.80;0.70;;;;;;;12.73;100.00;95467.03;5134443;27;20792;-57
2023/10/18 00:53:46;;;;;;;0.70;0.70;;;;;;;12.85;100.00;95471.97;5134260;27;21084;-56
2023/10/18 00:56:15;;;;;;;0.93;0.40;;;;;;;12.83;100.00;95470.66;5133836;27;20466;-57
2023/10/18 00:58:46;;;;;;;4.20;0.50;;;;;;;12.72;100.00;95475.28;5134402;27;20951;-57
2023/10/18 01:01:15;;;;;;;4.13;0.77;;;;;;;12.68;100.00;95469.72;5134192;27;20435;-57
2023/10/18 01:03:46;;;;;;;6.87;0.50;;;;;;;12.77;100.00;95461.16;5134786;27;20529;-57
2023/10/18 01:06:24;;;;;;;0.40;0.30;;;;;;;12.60;100.00;95469.50;5134533;27;20686;-57
2023/10/18 01:08:55;;;;;;;0.63;0.63;;;;;;;12.59;100.00;95468.75;5134013;27;20445;-57
2023/10/18 01:11:27;;;;;;;0.40;0.40;;;;;;;12.49;100.00;95460.84;5134348;27;20438;-57
2023/10/18 01:13:57;;;;;;;0.70;0.63;;;;;;;12.32;100.00;95460.41;5133851;27;20437;-57
2023/10/18 01:16:29;;;;;;;0.50;0.30;;;;;;;12.20;100.00;95462.63;5134341;27;20445;-56
2023/10/18 01:18:59;;;;;;;0.50;0.40;;;;;;;12.33;100.00;95459.34;5133987;27;20439;-57
2023/10/18 01:21:28;;;;;;;0.50;0.30;;;;;;;12.48;100.00;95461.91;5129451;27;20442;-56
2023/10/18 01:23:59;;;;;;;0.50;0.33;;;;;;;12.24;100.00;95460.22;5131805;27;20438;-56
2023/10/18 01:26:31;;;;;;;0.77;0.60;;;;;;;12.18;100.00;95462.09;5134167;27;20854;-57
2023/10/18 01:29:03;;;;;;;0.40;0.20;;;;;;;12.24;100.00;95447.72;5134060;27;20932;-57
2023/10/18 01:31:33;;;;;;;0.93;0.47;;;;;;;12.24;100.00;95441.59;5133883;27;20438;-57
2023/10/18 01:34:10;;;;;;;0.40;0.30;;;;;;;12.45;100.00;95443.84;5134008;27;20475;-57
2023/10/18 01:36:42;;;;;;;4.43;0.47;;;;;;;12.08;100.00;95433.75;5133474;27;20430;-57
2023/10/18 01:39:18;;;;;;;0.50;0.40;;;;;;;12.36;100.00;95447.38;5134302;27;20438;-57
2023/10/18 01:41:50;;;;;;;0.40;0.30;;;;;;;12.24;100.00;95442.41;5134101;27;20466;-57
2023/10/18 01:44:30;;;;;;;0.40;0.30;;;;;;;12.24;100.00;95441.59;5133793;27;20495;-57
2023/10/18 01:47:05;;;;;;;0.70;0.53;;;;;;;12.26;100.00;95440.25;5127466;27;20515;-57
2023/10/18 01:49:38;;;;;;;0.70;0.63;;;;;;;12.29;100.00;95441.56;5133252;27;20524;-57
2023/10/18 01:52:08;;;;;;;0.40;0.30;;;;;;;12.62;100.00;95441.56;5133922;27;20442;-57
2023/10/18 01:54:38;;;;;;;0.67;0.40;;;;;;;12.38;100.00;95448.69;5133220;27;20854;-57
2023/10/18 01:57:08;;;;;;;0.50;0.40;;;;;;;12.02;100.00;95449.97;5133119;27;21103;-56
2023/10/18 01:59:37;;;;;;;0.70;0.70;;;;;;;11.86;100.00;95451.94;5132566;27;20463;-57
2023/10/18 02:02:10;;;;;;;0.50;0.33;;;;;;;11.90;100.00;95454.81;5133656;27;20457;-57
2023/10/18 02:04:40;;;;;;;0.40;0.20;;;;;;;11.91;100.00;95457.22;5133106;27;20438;-57
2023/10/18 02:07:21;;;;;;;0.87;0.30;;;;;;;12.01;100.00;95451.06;5132985;27;20474;-57
2023/10/18 02:09:52;;;;;;;0.40;0.20;;;;;;;12.20;100.00;95457.31;5133353;27;20521;-57
2023/10/18 02:12:23;;;;;;;0.40;0.30;;;;;;;12.23;100.00;95456.75;5132329;27;20655;-57
2023/10/18 02:14:52;;;;;;;0.70;0.40;;;;;;;12.11;100.00;95453.66;5133235;27;20951;-57
2023/10/18 02:17:21;;;;;;;0.40;0.30;;;;;;;12.15;100.00;95453.88;5132661;27;20434;-57
2023/10/18 02:19:50;;;;;;;0.50;0.50;;;;;;;12.14;100.00;95442.47;5133000;27;20526;-57
2023/10/18 02:22:19;;;;;;;1.17;0.50;;;;;;;12.34;100.00;95449.50;5132224;27;20499;-57
2023/10/18 02:24:50;;;;;;;0.63;0.40;;;;;;;12.24;100.00;95453.03;5132603;27;21026;-57
2023/10/18 02:27:19;;;;;;;0.70;0.40;;;;;;;12.26;100.00;95450.91;5132439;27;21112;-57
2023/10/18 02:29:52;;;;;;;4.40;0.63;;;;;;;12.43;100.00;95455.81;5132485;27;20903;-57
2023/10/18 02:32:32;;;;;;;0.40;0.40;;;;;;;12.55;100.00;95458.91;5131302;27;20518;-57
2023/10/18 02:35:04;;;;;;;0.40;0.30;;;;;;;12.66;100.00;95460.44;5131800;27;20939;-56
2023/10/18 02:37:32;;;;;;;0.40;0.30;;;;;;;12.72;100.00;95460.09;5132604;27;20442;-56
2023/10/18 02:40:08;;;;;;;0.50;0.30;;;;;;;12.82;100.00;95461.09;5132025;27;20467;-57
2023/10/18 02:42:38;;;;;;;0.50;0.40;;;;;;;13.01;100.00;95462.78;5132354;27;20470;-57
2023/10/18 02:45:13;;;;;;;0.47;0.33;;;;;;;12.98;100.00;95473.22;5131852;27;20499;-57
2023/10/18 02:47:42;;;;;;;0.40;0.30;;;;;;;13.12;100.00;95466.19;5132390;27;21043;-58
2023/10/18 02:50:14;;;;;;;0.50;0.40;;;;;;;13.18;100.00;95455.19;5105320;27;20821;-58
2023/10/18 02:52:45;;;;;;;0.40;0.30;;;;;;;13.17;100.00;95456.28;5132577;27;20538;-58
2023/10/18 02:55:18;;;;;;;0.50;0.30;;;;;;;13.24;100.00;95458.59;5132249;27;20474;-57
2023/10/18 02:57:47;;;;;;;0.53;0.50;;;;;;;13.18;100.00;95451.75;5132128;27;20446;-57
2023/10/18 03:00:20;;;;;;;0.40;0.30;;;;;;;13.22;100.00;95453.56;5132234;27;20898;-58
2023/10/18 03:02:50;;;;;;;0.40;0.30;;;;;;;13.35;100.00;95449.44;5131978;27;20445;-57
2023/10/18 03:05:20;;;;;;;0.50;0.30;;;;;;;13.42;100.00;95444.56;5131934;28;20522;-58
2023/10/18 03:07:48;;;;;;;0.80;0.50;;;;;;;13.43;100.00;95442.69;5132448;28;20474;-58
2023/10/18 03:10:27;;;;;;;0.90;0.47;;;;;;;13.29;100.00;95443.38;5132466;27;20509;-58
2023/10/18 03:12:56;;;;;;;0.40;0.30;;;;;;;13.41;100.00;95442.97;5123894;27;20538;-58
2023/10/18 03:15:28;;;;;;;0.50;0.40;;;;;;;13.30;100.00;95441.50;5135791;27;20434;-57
2023/10/18 03:17:57;;;;;;;0.50;0.40;;;;;;;13.20;100.00;95436.28;5136604;27;20448;-58
2023/10/18 03:20:26;;;;;;;0.60;0.40;;;;;;;13.12;100.00;95436.91;5136095;27;20434;-58
2023/10/18 03:22:55;;;;;;;0.50;0.40;;;;;;;13.21;100.00;95435.19;5136257;27;20844;-57
2023/10/18 03:25:27;;;;;;;0.60;0.40;;;;;;;13.12;100.00;95437.69;5135837;27;20430;-57
2023/10/18 03:28:00;;;;;;;1.17;0.57;;;;;;;13.19;100.00;95442.69;5136112;27;20849;-58
2023/10/18 03:30:44;;;;;;;1.37;1.17;;;;;;;13.33;100.00;95443.63;5136419;27;20507;-58
2023/10/18 03:33:15;;;;;;;0.73;0.70;;;;;;;13.25;100.00;95438.91;5135707;27;20434;-57
2023/10/18 03:35:46;;;;;;;0.50;0.40;;;;;;;13.23;100.00;95443.72;5135972;27;20434;-57
2023/10/18 03:38:17;;;;;;;0.60;0.60;;;;;;;13.04;100.00;95445.47;5135664;27;20434;-58
2023/10/18 03:40:49;;;;;;;0.40;0.30;;;;;;;13.02;100.00;95447.63;5135537;27;20445;-57
2023/10/18 03:43:26;;;;;;;0.70;0.70;;;;;;;13.07;100.00;95442.28;5136348;27;20487;-57
2023/10/18 03:46:08;;;;;;;0.63;0.50;;;;;;;13.25;100.00;95445.03;5135905;27;20517;-58
2023/10/18 03:48:40;;;;;;;0.50;0.50;;;;;;;13.29;100.00;95447.91;5110232;27;20442;-58
2023/10/18 03:51:09;;;;;;;0.70;0.70;;;;;;;12.89;100.00;95445.59;5134276;27;20437;-58
2023/10/18 03:53:38;;;;;;;0.40;0.30;;;;;;;12.83;100.00;95444.84;5135897;27;20804;-58
2023/10/18 03:56:08;;;;;;;0.70;0.43;;;;;;;12.91;100.00;95448.78;5135190;27;20458;-58
2023/10/18 03:58:38;;;;;;;0.40;0.30;;;;;;;13.00;100.00;95447.91;5135996;27;20954;-57
2023/10/18 04:01:12;;;;;;;0.60;0.50;;;;;;;12.81;100.00;95390.34;5135457;27;20438;-58
2023/10/18 04:03:41;;;;;;;0.40;0.20;;;;;;;13.08;100.00;95441.97;5135801;27;20461;-58
2023/10/18 04:06:21;;;;;;;0.50;0.30;;;;;;;13.01;100.00;95443.34;5134884;27;20494;-58
2023/10/18 04:08:49;;;;;;;0.60;0.43;;;;;;;12.98;100.00;95441.28;5134777;27;20457;-58
2023/10/18 04:11:26;;;;;;;0.47;0.40;;;;;;;12.95;100.00;95449.81;5135432;27;20434;-58
2023/10/18 04:13:54;;;;;;;0.40;0.30;;;;;;;13.10;100.00;95450.50;5135608;27;20445;-59
2023/10/18 04:16:30;;;;;;;0.50;0.50;;;;;;;13.01;100.00;95452.13;5135511;27;20499;-58
2023/10/18 04:18:59;;;;;;;0.50;0.40;;;;;;;12.62;100.00;95454.88;5135513;27;20813;-57
2023/10/18 04:21:28;;;;;;;0.47;0.30;;;;;;;12.64;100.00;95449.28;5134972;27;20939;-58
2023/10/18 04:23:57;;;;;;;0.40;0.30;;;;;;;12.87;100.00;95429.94;5134457;27;20522;-58
2023/10/18 04:26:26;;;;;;;0.60;0.50;;;;;;;12.93;100.00;95444.75;5134387;27;20478;-58
2023/10/18 04:28:57;;;;;;;0.97;0.93;;;;;;;12.85;100.00;95449.91;5133538;27;20430;-58
2023/10/18 04:31:27;;;;;;;0.90;0.73;;;;;;;12.87;100.00;95453.09;5134732;27;20439;-58
2023/10/18 04:33:57;;;;;;;0.80;0.70;;;;;;;12.74;100.00;95451.84;5109256;27;20469;-57
2023/10/18 04:36:27;;;;;;;0.50;0.50;;;;;;;12.37;100.00;95441.75;5134415;27;20438;-58
2023/10/18 04:38:58;;;;;;;0.50;0.40;;;;;;;12.25;100.00;95453.81;5134752;27;20944;-58
2023/10/18 04:41:28;;;;;;;0.70;0.60;;;;;;;12.25;100.00;95446.63;5134684;27;20810;-57
2023/10/18 04:44:04;;;;;;;0.70;0.50;;;;;;;12.49;100.00;95450.19;5134223;27;20440;-57
2023/10/18 04:46:36;;;;;;;0.40;0.30;;;;;;;12.60;100.00;95451.69;5134210;27;20526;-56
2023/10/18 04:49:23;;;;;;;0.40;0.30;;;;;;;12.52;100.00;95460.25;5134624;27;20441;-56
2023/10/18 04:51:54;;;;;;;0.80;0.70;;;;;;;12.15;100.00;95460.00;5134360;27;20518;-56
2023/10/18 04:54:35;;;;;;;0.57;0.57;;;;;;;12.17;100.00;95465.03;5134059;27;20439;-56
2023/10/18 04:57:09;;;;;;;0.60;0.60;;;;;;;12.22;100.00;95465.00;5134055;27;20450;-56
2023/10/18 04:59:45;;;;;;;1.20;0.60;;;;;;;11.82;100.00;95448.22;5128938;27;20438;-56
2023/10/18 05:02:18;;;;;;;0.40;0.40;;;;;;;12.08;100.00;95475.44;5134356;27;20450;-56
2023/10/18 05:04:46;;;;;;;0.90;0.90;;;;;;;12.43;100.00;95469.91;5133640;27;20442;-56
2023/10/18 05:07:15;;;;;;;0.40;0.30;;;;;;;12.49;100.00;95470.66;5134814;27;20517;-55
2023/10/18 05:09:45;;;;;;;1.20;1.20;;;;;;;12.39;100.00;95473.41;5134148;27;20495;-55
2023/10/18 05:12:28;;;;;;;0.40;0.30;;;;;;;12.31;100.00;95468.66;5133658;27;20506;-55
2023/10/18 05:15:16;;;;;;;0.60;0.60;;;;;;;12.40;100.00;95477.63;5134081;27;20443;-56
2023/10/18 05:17:47;;;;;;;0.60;0.40;;;;;;;12.63;100.00;95464.44;5134005;27;20439;-55
2023/10/18 05:20:41;;;;;;;0.40;0.30;;;;;;;12.63;100.00;95477.72;5134067;27;20438;-55
2023/10/18 05:23:10;;;;;;;0.77;0.77;;;;;;;12.81;100.00;95480.78;5133634;27;20954;-55
2023/10/18 05:25:46;;;;;;;0.80;0.47;;;;;;;12.66;100.00;95482.50;5133852;27;20534;-56
2023/10/18 05:28:17;;;;;;;0.80;0.80;;;;;;;12.46;100.00;95481.84;5109592;27;20585;-56
2023/10/18 05:33:55;;;;;;;0.50;0.50;;;;;;;12.59;100.00;95490.00;5132920;27;20434;-55
2023/10/18 05:36:54;;;;;;;2.20;0.50;;;;;;;12.58;100.00;95490.28;5133853;27;20462;-56
2023/10/18 05:39:28;;;;;;;0.97;0.40;;;;;;;12.52;100.00;95486.84;5133604;27;20442;-56
2023/10/18 05:42:13;;;;;;;2.10;0.60;;;;;;;12.80;100.00;95493.28;5133374;27;20426;-56
2023/10/18 05:44:42;;;;;;;0.53;0.30;;;;;;;13.04;100.00;95496.81;5133782;27;20441;-56
2023/10/18 05:47:10;;;;;;;1.57;0.40;;;;;;;13.10;100.00;95500.25;5133699;27;20534;-56
2023/10/18 05:49:59;;;;;;;0.40;0.30;;;;;;;13.08;100.00;95497.09;5133448;27;20507;-56
2023/10/18 05:52:44;;;;;;;0.50;0.50;;;;;;;13.01;100.00;95500.03;5132652;27;20438;-56
2023/10/18 05:55:12;;;;;;;0.40;0.30;;;;;;;13.22;100.00;95500.69;5109731;27;20446;-57
2023/10/18 05:57:42;;;;;;;0.40;0.30;;;;;;;13.08;100.00;95457.19;5133206;27;20441;-56
2023/10/18 06:00:18;;;;;;;0.50;0.40;;;;;;;13.48;100.00;95510.00;5133923;27;20468;-56
2023/10/18 06:02:46;;;;;;;0.60;0.40;;;;;;;14.11;100.00;95502.59;5133423;27;20444;-61
2023/10/18 06:05:16;;;;;;;0.53;0.30;;;;;;;14.50;100.00;95510.34;5133139;27;20507;-65
2023/10/18 06:07:45;;;;;;;0.70;0.70;;;;;;;14.28;100.00;95507.44;5133246;27;20569;-62
2023/10/18 06:10:16;;;;;;;0.73;0.73;;;;;;;14.88;100.00;95517.25;5133399;27;20538;-61
2023/10/18 06:12:48;;;;;;;0.50;0.40;;;;;;;15.22;100.00;95517.78;5133103;27;20430;-61
2023/10/18 06:15:34;;;;;;;0.73;0.73;;;;;;;15.19;100.00;95523.69;5132567;27;20443;-61
2023/10/18 06:18:05;;;;;;;0.60;0.60;;;;;;;15.24;100.00;95526.28;5132796;27;20443;-54
2023/10/18 06:20:38;;;;;;;0.80;0.67;;;;;;;15.34;100.00;95529.84;5133237;27;20438;-58
2023/10/18 06:23:09;;;;;;;0.40;0.30;;;;;;;15.16;100.00;95518.94;5121780;27;20431;-58
2023/10/18 06:25:44;;;;;;;0.40;0.30;;;;;;;14.89;100.00;95532.19;5127095;27;20541;-61
2023/10/18 06:28:20;;;;;;;0.60;0.53;;;;;;;14.94;100.00;95529.44;5132782;27;20469;-60
2023/10/18 06:30:51;;;;;;;0.50;0.40;;;;;;;14.38;100.00;95475.34;5132662;27;20823;-60
2023/10/18 06:33:23;;;;;;;0.73;0.50;;;;;;;14.71;100.00;95532.19;5132866;27;20484;-61
2023/10/18 06:35:54;;;;;;;0.50;0.30;;;;;;;14.34;100.00;95450.34;5132750;27;20469;-61
2023/10/18 06:38:23;;;;;;;0.97;0.90;;;;;;;14.33;100.00;95515.41;5132326;27;20447;-59
2023/10/18 06:40:53;;;;;;;0.50;0.50;;;;;;;14.41;100.00;95533.44;5132568;27;20974;-60
2023/10/18 06:43:32;;;;;;;0.50;0.40;;;;;;;14.25;100.00;95532.00;5132843;27;20918;-61
2023/10/18 06:46:04;;;;;;;0.50;0.50;;;;;;;14.39;100.00;95524.94;5133091;27;20438;-60
2023/10/18 06:48:33;;;;;;;0.40;0.40;;;;;;;14.32;100.00;95530.59;5133033;27;20474;-60
2023/10/18 06:51:11;;;;;;;0.40;0.30;;;;;;;14.46;100.00;95531.50;5132484;27;20434;-60
2023/10/18 06:53:40;;;;;;;0.50;0.40;;;;;;;14.59;100.00;95527.31;5132614;27;20454;-60
2023/10/18 06:56:19;;;;;;;0.40;0.30;;;;;;;14.86;100.00;95529.31;5132435;27;20426;-59
2023/10/18 06:58:48;;;;;;;1.57;1.10;;;;;;;14.67;100.00;95531.19;5132654;27;20989;-60
2023/10/18 07:01:20;;;;;;;0.40;0.30;;;;;;;14.75;100.00;95531.31;5131895;27;20449;-59
2023/10/18 07:03:49;;;;;;;0.77;0.57;;;;;;;14.79;100.00;95528.88;5132580;27;20430;-60
2023/10/18 07:06:23;;;;;;;0.43;0.37;;;;;;;14.47;100.00;95534.97;5132102;27;20430;-59
2023/10/18 07:08:53;;;;;;;0.50;0.50;;;;;;;14.48;100.00;95533.84;5132604;28;20477;-59
2023/10/18 07:11:22;;;;;;;5.50;0.80;;;;;;;14.59;100.00;95532.66;5132111;28;20435;-60
2023/10/18 07:14:12;;;;;;;0.40;0.30;;;;;;;14.81;100.00;95522.16;5131375;28;20436;-60
2023/10/18 07:16:42;;;;;;;0.60;0.50;;;;;;;14.83;100.00;95535.22;5132282;28;20438;-59
2023/10/18 07:19:25;;;;;;;0.70;0.70;;;;;;;14.95;100.00;95535.59;5131976;28;20807;-59
2023/10/18 07:21:56;;;;;;;13.23;0.67;;;;;;;14.98;100.00;95534.97;5131821;28;20820;-58
2023/10/18 07:24:32;;;;;;;0.63;0.60;;;;;;;14.52;100.00;95513.56;5124131;28;20432;-59
2023/10/18 07:27:03;;;;;;;8.30;0.60;;;;;;;14.99;100.00;95528.56;5121639;28;20558;-59
2023/10/18 07:29:36;;;;;;;0.73;0.73;;;;;;;15.05;100.00;95528.19;5122930;28;20470;-58
2023/10/18 07:32:12;;;;;;;0.70;0.70;;;;;;;15.21;100.00;95529.53;5120422;28;20474;-58
2023/10/18 07:34:42;;;;;;;0.80;0.63;;;;;;;15.38;100.00;95530.88;5118123;28;21012;-59
2023/10/18 07:37:19;;;;;;;0.83;0.83;;;;;;;15.18;100.00;95532.78;5098944;28;20447;-58
2023/10/18 07:39:56;;;;;;;0.73;0.57;;;;;;;15.05;100.00;95532.75;5112922;28;20915;-59
2023/10/18 07:42:26;;;;;;;0.50;0.40;;;;;;;15.48;100.00;95531.50;5112732;28;20490;-59
2023/10/18 07:44:55;;;;;;;0.50;0.40;;;;;;;15.60;100.00;95539.84;5113418;28;20523;-59
2023/10/18 07:47:31;;;;;;;1.73;1.63;;;;;;;15.24;100.00;95534.28;5124221;28;20450;-58
2023/10/18 07:50:01;;;;;;;0.53;0.43;;;;;;;15.07;100.00;95530.56;5131197;28;20999;-59
2023/10/18 07:52:31;;;;;;;0.70;0.50;;;;;;;15.12;100.00;95531.28;5131727;28;20461;-58
2023/10/18 07:54:59;;;;;;;1.10;0.83;;;;;;;15.16;100.00;95526.13;5132236;28;20430;-59
2023/10/18 07:57:33;;;;;;;0.70;0.60;;;;;;;15.39;100.00;95533.22;5133458;27;20498;-59
2023/10/18 08:02:45;;;;;;;0.60;0.40;;;;;;;15.08;100.00;95537.47;5135899;27;20430;-59
2023/10/18 08:05:18;;;;;;;0.60;0.60;;;;;;;15.07;100.00;95544.72;5135874;27;20449;-59
2023/10/18 08:07:51;;;;;;;0.83;0.83;;;;;;;15.42;100.00;95516.63;5135429;27;20441;-60
2023/10/18 08:10:21;;;;;;;0.50;0.33;;;;;;;15.60;100.00;95536.38;5135377;27;20889;-59
2023/10/18 08:13:03;;;;;;;1.00;1.00;;;;;;;15.37;100.00;95521.25;5135109;27;20431;-59
2023/10/18 08:15:36;;;;;;;1.33;1.33;;;;;;;15.68;100.00;95531.16;5135579;27;20806;-59
2023/10/18 08:18:15;;;;;;;1.50;1.40;;;;;;;15.64;100.00;95529.34;5134232;27;20435;-60
2023/10/18 08:20:59;;;;;;;1.63;1.53;;;;;;;15.22;100.00;95539.13;5134088;27;20546;-56
2023/10/18 08:23:39;;;;;;;0.90;0.70;;;;;;;14.96;100.00;95543.28;5135660;27;20467;-56
2023/10/18 08:26:07;;;;;;;0.50;0.47;;;;;;;15.25;100.00;95538.53;5135045;27;20474;-56
2023/10/18 08:28:39;;;;;;;1.53;1.43;;;;;;;15.57;100.00;95545.75;5134855;27;20936;-56
2023/10/18 08:31:26;;;;;;;0.90;0.87;;;;;;;15.48;100.00;95552.09;5135116;27;20442;-56
2023/10/18 08:33:56;;;;;;;0.50;0.40;;;;;;;15.55;100.00;95544.47;5135069;27;20437;-56
2023/10/18 08:36:30;;;;;;;0.40;0.30;;;;;;;15.62;100.00;95547.53;5135186;27;20438;-56
2023/10/18 08:39:01;;;;;;;1.50;1.40;;;;;;;15.48;100.00;95536.06;5135106;27;20517;-56
2023/10/18 08:41:35;;;;;;;1.33;1.23;;;;;;;15.49;100.00;95537.63;5135357;27;20446;-56
2023/10/18 08:44:15;;;;;;;1.33;1.23;;;;;;;15.47;100.00;95545.94;5135007;27;20442;-56
2023/10/18 08:46:52;;;;;;;0.87;0.87;;;;;;;15.65;100.00;95552.31;5134908;27;20517;-56
2023/10/18 08:49:23;;;;;;;3.23;1.13;;;;;;;15.37;100.00;95548.75;5134154;27;20511;-56
2023/10/18 08:52:04;;;;;;;0.63;0.40;;;;;;;15.33;100.00;95557.66;5134746;27;20471;-56
2023/10/18 08:54:37;;;;;;;0.60;0.40;;;;;;;15.54;100.00;95524.97;5134711;27;20430;-57
2023/10/18 08:57:09;;;;;;;0.50;0.43;;;;;;;15.93;100.00;95553.94;5135162;27;20442;-57
2023/10/18 08:59:46;;;;;;;0.53;0.40;;;;;;;16.28;100.00;95555.88;5134192;27;20434;-57
2023/10/18 09:02:18;;;;;;;0.70;0.60;;;;;;;16.02;100.00;95532.63;5134284;27;20442;-57
2023/10/18 09:04:51;;;;;;;0.90;0.53;;;;;;;16.15;100.00;95535.28;5135255;27;20487;-57
2023/10/18 09:07:42;;;;;;;0.47;0.30;;;;;;;16.45;99.76;95542.69;5131512;27;20469;-57
2023/10/18 09:10:33;;;;;;;0.70;0.30;;;;;;;16.71;95.49;95531.44;5125410;27;20565;-57
2023/10/18 09:16:01;;;;;;;0.60;0.60;;;;;;;16.79;95.78;95544.13;5133981;27;20920;-56
2023/10/18 09:18:31;;;;;;;0.50;0.40;;;;;;;16.75;97.03;95497.63;5133598;27;20487;-57
2023/10/18 09:21:07;;;;;;;0.80;0.40;;;;;;;17.29;93.13;95526.84;5134559;27;20792;-57
2023/10/18 09:23:36;;;;;;;0.50;0.40;;;;;;;17.88;88.87;95528.28;5133937;27;20438;-56
2023/10/18 09:26:10;;;;;;;0.40;0.30;;;;;;;18.11;85.49;95523.63;5134092;27;20857;-57
2023/10/18 09:28:42;;;;;;;0.40;0.30;;;;;;;18.24;81.74;95522.72;5134011;27;20422;-57
2023/10/18 09:31:18;;;;;;;1.00;0.50;;;;;;;18.38;80.72;95528.75;5122289;27;20506;-57
2023/10/18 09:33:52;;;;;;;1.23;0.53;;;;;;;18.71;78.07;95524.56;5109372;27;20461;-56
2023/10/18 09:36:23;;;;;;;2.73;0.47;;;;;;;18.78;76.46;95508.78;5133719;27;20446;-56
2023/10/18 09:38:53;;;;;;;0.70;0.50;;;;;;;18.52;78.87;95520.59;5108839;27;20441;-57
2023/10/18 09:41:26;;;;;;;0.50;0.40;;;;;;;18.17;82.27;95531.22;5132109;27;20522;-56
2023/10/18 09:44:00;;;;;;;0.50;0.30;;;;;;;18.04;79.85;95525.97;5133690;27;20460;-57
2023/10/18 09:46:30;;;;;;;0.50;0.40;;;;;;;18.34;76.80;95525.13;5133750;27;20441;-56
2023/10/18 09:49:01;;;;;;;0.40;0.20;;;;;;;17.82;77.34;95523.34;5133875;27;20470;-56
2023/10/18 09:51:31;;;;;;;1.27;0.40;;;;;;;18.44;77.11;95519.47;5128346;27;20511;-56
2023/10/18 09:54:06;;;;;;;0.97;0.70;;;;;;;18.34;77.15;95477.59;5112164;27;20434;-56
2023/10/18 09:56:38;;;;;;;0.80;0.80;;;;;;;18.04;79.36;95525.97;5125310;27;20439;-56
2023/10/18 09:59:08;;;;;;;0.50;0.40;;;;;;;18.31;79.56;95520.38;5133836;27;20435;-56
2023/10/18 10:02:00;;;;;;;0.60;0.37;;;;;;;18.03;79.56;95521.72;5132315;27;20942;-56
2023/10/18 10:04:33;;;;;;;0.97;0.60;;;;;;;17.94;77.06;95500.22;5131902;27;20465;-56
2023/10/18 10:09:48;;;;;;;0.60;0.57;;;;;;;18.13;76.69;95510.69;5119827;27;20501;-57
2023/10/18 10:12:19;;;;;;;0.40;0.30;;;;;;;17.83;76.20;95511.53;5133077;27;20431;-57
2023/10/18 10:14:47;;;;;;;0.50;0.30;;;;;;;17.99;74.71;95507.31;5132929;27;20430;-57
2023/10/18 10:17:18;;;;;;;0.67;0.67;;;;;;;18.07;76.41;95506.56;5132918;27;20499;-56
2023/10/18 10:19:52;;;;;;;0.50;0.30;;;;;;;18.29;76.44;95515.31;5132429;27;20481;-57
2023/10/18 10:22:24;;;;;;;0.57;0.57;;;;;;;18.29;74.43;95495.75;5133273;27;20998;-57
2023/10/18 10:24:59;;;;;;;0.70;0.50;;;;;;;18.59;75.96;95489.50;5132416;27;20430;-56
2023/10/18 10:27:52;;;;;;;0.70;0.47;;;;;;;18.72;75.75;95496.59;5132627;27;20466;-57
2023/10/18 10:30:25;;;;;;;0.70;0.60;;;;;;;18.42;75.11;95494.81;5132548;27;20466;-55
2023/10/18 10:32:59;;;;;;;0.50;0.30;;;;;;;18.52;78.22;95493.75;5132459;27;20438;-55
2023/10/18 10:35:32;;;;;;;0.53;0.37;;;;;;;18.67;81.63;95463.75;5132866;27;20944;-55
2023/10/18 10:38:09;;;;;;;0.50;0.30;;;;;;;19.21;75.83;95483.75;5132404;27;20870;-55
2023/10/18 10:40:44;;;;;;;0.77;0.40;;;;;;;19.16;77.03;95486.63;5129952;27;20445;-56
2023/10/18 10:43:18;;;;;;;0.50;0.40;;;;;;;19.43;74.14;95486.28;5130554;27;20439;-55
2023/10/18 10:45:54;;;;;;;0.50;0.30;;;;;;;19.67;75.94;95491.09;5123134;27;20483;-56
2023/10/18 10:48:36;;;;;;;1.53;0.40;;;;;;;19.90;74.02;95474.41;5112504;27;20898;-55
2023/10/18 10:51:13;;;;;;;0.60;0.37;;;;;;;19.46;73.34;95426.47;5113600;27;20474;-55
2023/10/18 10:53:45;;;;;;;1.37;1.37;;;;;;;19.33;74.42;95479.31;5132582;27;20438;-55
2023/10/18 10:56:18;;;;;;;1.93;1.83;;;;;;;19.73;72.71;95474.47;5132193;27;20442;-55
2023/10/18 10:58:55;;;;;;;0.60;0.40;;;;;;;20.42;67.33;95471.41;5132227;27;20439;-55
2023/10/18 11:02:05;;;;;;;0.43;0.30;;;;;;;20.86;66.57;95468.06;5132553;27;20431;-55
2023/10/18 11:04:50;;;;;;;0.97;0.83;;;;;;;21.37;64.09;95472.22;5110388;27;20441;-55
2023/10/18 11:07:22;;;;;;;0.60;0.50;;;;;;;20.59;66.38;95471.31;5131909;27;20952;-55
2023/10/18 11:09:59;;;;;;;0.40;0.30;;;;;;;20.54;64.23;95466.13;5132462;27;20442;-55
2023/10/18 11:12:29;;;;;;;0.93;0.50;;;;;;;20.80;64.34;95456.72;5131880;28;20430;-56
2023/10/18 11:15:04;;;;;;;0.50;0.40;;;;;;;20.71;62.81;95466.00;5132487;28;20445;-56
2023/10/18 11:17:34;;;;;;;0.50;0.30;;;;;;;20.75;62.88;95461.50;5132306;28;20520;-56
2023/10/18 11:20:17;;;;;;;1.53;0.50;;;;;;;20.77;64.28;95462.75;5132325;28;20442;-56
2023/10/18 11:22:47;;;;;;;0.40;0.30;;;;;;;20.85;61.82;95459.22;5132496;28;20430;-56
2023/10/18 11:25:19;;;;;;;0.70;0.40;;;;;;;20.64;61.86;95457.66;5132192;28;20430;-56
2023/10/18 11:27:48;;;;;;;0.40;0.30;;;;;;;21.17;60.59;95443.41;5132884;28;20498;-55
2023/10/18 11:30:22;;;;;;;0.50;0.30;;;;;;;21.21;62.61;95447.81;5132472;28;20889;-55
2023/10/18 11:32:53;;;;;;;0.47;0.23;;;;;;;20.63;62.75;95384.16;5134573;27;20433;-55
2023/10/18 11:35:38;;;;;;;0.50;0.40;;;;;;;20.51;62.35;95443.34;5127624;27;20435;-54
2023/10/18 11:38:10;;;;;;;0.40;0.30;;;;;;;20.96;62.98;95443.41;5132912;27;20453;-54
2023/10/18 11:40:40;;;;;;;0.50;0.40;;;;;;;20.66;64.38;95448.13;5136359;27;20443;-54
2023/10/18 11:43:09;;;;;;;0.40;0.30;;;;;;;20.82;64.09;95440.25;5135720;27;20820;-54
2023/10/18 11:45:42;;;;;;;0.40;0.30;;;;;;;20.22;65.76;95436.06;5136325;27;20462;-53
2023/10/18 11:48:10;;;;;;;0.50;0.30;;;;;;;20.27;63.81;95437.78;5136093;27;20441;-53
2023/10/18 11:50:41;;;;;;;0.60;0.40;;;;;;;20.08;65.75;95422.06;5135896;27;20469;-54
2023/10/18 11:53:12;;;;;;;0.40;0.30;;;;;;;20.10;66.36;95414.47;5136011;27;20438;-54
2023/10/18 11:56:09;;;;;;;0.40;0.30;;;;;;;20.04;66.31;95421.13;5135650;27;20448;-54
2023/10/18 11:58:41;;;;;;;0.40;0.30;;;;;;;19.93;65.71;95425.34;5118021;27;20446;-54
2023/10/18 12:01:31;;;;;;;0.50;0.30;;;;;;;20.05;65.10;95417.34;5110037;27;20442;-54
2023/10/18 12:04:00;;;;;;;0.40;0.30;;;;;;;19.83;66.42;95414.16;5134478;27;20530;-54
2023/10/18 12:06:28;;;;;;;0.40;0.30;;;;;;;19.91;66.28;95422.16;5135467;27;20552;-55